createdAt,value
2017-11-19T00:00:13.669Z,73.72
2017-11-19T00:02:41.973Z,73.38
2017-11-19T00:05:11.058Z,72.65
2017-11-19T00:07:39.367Z,72.46
2017-11-19T00:10:08.449Z,72.27
2017-11-19T00:12:37.550Z,72.53
2017-11-19T00:15:06.615Z,72.50
2017-11-19T00:17:34.988Z,72.96
2017-11-19T00:20:03.322Z,73.24
2017-11-19T00:22:32.491Z,73.20
2017-11-19T00:25:00.808Z,73.15
2017-11-19T00:27:29.141Z,72.97
2017-11-19T00:29:58.356Z,73.25
2017-11-19T00:32:27.432Z,73.45
2017-11-19T00:34:55.728Z,73.46
2017-11-19T00:37:24.106Z,72.73
2017-11-19T00:39:52.434Z,73.33
2017-11-19T00:42:21.552Z,73.47
2017-11-19T00:44:49.856Z,73.70
2017-11-19T00:47:18.258Z,74.27
2017-11-19T00:49:46.571Z,74.71
2017-11-19T00:52:15.651Z,75.08
2017-11-19T00:54:44.020Z,76.42
2017-11-19T00:57:12.341Z,77.26
2017-11-19T00:59:41.422Z,77.83
2017-11-19T01:02:10.494Z,77.94
2017-11-19T01:04:38.815Z,78.33
2017-11-19T01:07:07.130Z,78.50
2017-11-19T01:09:35.651Z,78.71
2017-11-19T01:12:03.984Z,78.47
2017-11-19T01:14:33.621Z,77.73
2017-11-19T01:17:01.908Z,76.82
2017-11-19T01:19:30.190Z,75.58
2017-11-19T01:21:58.482Z,75.21
2017-11-19T01:24:26.856Z,73.93
2017-11-19T01:26:55.142Z,73.60
2017-11-19T01:29:23.538Z,73.28
2017-11-19T01:31:52.732Z,73.31
2017-11-19T01:34:21.058Z,73.68
2017-11-19T01:36:49.356Z,73.72
2017-11-19T01:39:17.659Z,73.94
2017-11-19T01:41:45.978Z,74.15
2017-11-19T01:44:15.038Z,73.45
2017-11-19T01:46:43.445Z,73.69
2017-11-19T01:49:11.759Z,74.16
2017-11-19T01:51:40.357Z,74.37
2017-11-19T01:54:09.518Z,74.66
2017-11-19T01:56:37.833Z,74.32
2017-11-19T01:59:06.892Z,73.98
2017-11-19T02:01:35.181Z,74.02
2017-11-19T02:04:03.542Z,73.88
2017-11-19T02:06:31.859Z,73.97
2017-11-19T02:09:00.217Z,74.29
2017-11-19T02:11:28.517Z,74.63
2017-11-19T02:13:58.333Z,74.77
2017-11-19T02:16:28.753Z,74.89
2017-11-19T02:18:57.075Z,74.91
2017-11-19T02:21:26.139Z,74.54
2017-11-19T02:23:54.509Z,74.64
2017-11-19T02:26:22.828Z,74.78
2017-11-19T02:28:51.114Z,74.65
2017-11-19T02:31:21.044Z,74.54
2017-11-19T02:33:50.129Z,74.31
2017-11-19T02:36:19.198Z,74.47
2017-11-19T02:38:47.532Z,74.83
2017-11-19T02:41:15.847Z,75.89
2017-11-19T02:43:44.298Z,76.80
2017-11-19T02:46:12.590Z,78.06
2017-11-19T02:48:40.906Z,79.77
2017-11-19T02:51:09.218Z,80.98
2017-11-19T02:53:37.529Z,81.96
2017-11-19T02:56:05.819Z,82.82
2017-11-19T02:58:34.129Z,83.32
2017-11-19T03:01:02.440Z,83.79
2017-11-19T03:03:30.749Z,83.63
2017-11-19T03:05:59.066Z,83.86
2017-11-19T03:08:27.632Z,84.07
2017-11-19T03:10:55.956Z,84.36
2017-11-19T03:13:24.259Z,84.79
2017-11-19T03:15:52.609Z,85.34
2017-11-19T03:18:20.915Z,85.79
2017-11-19T03:20:49.220Z,86.08
2017-11-19T03:23:18.301Z,85.94
2017-11-19T03:25:46.666Z,85.75
2017-11-19T03:28:14.980Z,85.50
2017-11-19T03:30:43.323Z,85.79
2017-11-19T03:33:11.630Z,85.93
2017-11-19T03:35:39.952Z,85.92
2017-11-19T03:38:08.252Z,85.95
2017-11-19T03:40:36.695Z,85.98
2017-11-19T03:43:05.778Z,86.00
2017-11-19T03:45:34.083Z,85.86
2017-11-19T03:48:02.390Z,85.36
2017-11-19T03:50:30.701Z,83.90
2017-11-19T03:52:59.006Z,83.66
2017-11-19T03:55:28.056Z,83.27
2017-11-19T03:57:56.455Z,82.57
2017-11-19T04:00:24.782Z,82.80
2017-11-19T04:02:53.103Z,83.08
2017-11-19T04:05:21.414Z,83.47
2017-11-19T04:07:49.732Z,84.05
2017-11-19T04:10:18.822Z,84.07
2017-11-19T04:12:47.921Z,84.11
2017-11-19T04:15:16.993Z,84.24
2017-11-19T04:17:45.317Z,84.45
2017-11-19T04:20:13.640Z,84.49
2017-11-19T04:22:41.968Z,84.37
2017-11-19T04:25:11.130Z,84.73
2017-11-19T04:27:39.426Z,85.01
2017-11-19T04:30:08.534Z,85.00
2017-11-19T04:32:36.844Z,84.63
2017-11-19T04:35:05.150Z,84.66
2017-11-19T04:37:33.449Z,84.61
2017-11-19T04:40:01.760Z,84.67
2017-11-19T04:42:30.864Z,84.85
2017-11-19T04:45:00.034Z,84.66
2017-11-19T04:47:28.489Z,84.15
2017-11-19T04:49:56.787Z,84.21
2017-11-19T04:52:25.899Z,84.03
2017-11-19T04:54:54.208Z,83.37
2017-11-19T04:57:23.444Z,83.21
2017-11-19T04:59:51.753Z,82.85
2017-11-19T05:02:20.647Z,82.21
2017-11-19T05:04:48.952Z,81.66
2017-11-19T05:07:17.284Z,81.46
2017-11-19T05:09:45.594Z,81.16
2017-11-19T05:12:13.892Z,80.57
2017-11-19T05:14:42.189Z,80.55
2017-11-19T05:17:12.219Z,80.44
2017-11-19T05:19:41.276Z,80.09
2017-11-19T05:22:09.577Z,79.25
2017-11-19T05:24:37.881Z,78.52
2017-11-19T05:27:06.949Z,77.64
2017-11-19T05:29:35.330Z,77.36
2017-11-19T05:32:03.627Z,77.32
2017-11-19T05:34:31.997Z,77.58
2017-11-19T05:37:00.390Z,77.77
2017-11-19T05:39:28.701Z,77.97
2017-11-19T05:41:57.776Z,78.06
2017-11-19T05:44:27.742Z,77.79
2017-11-19T05:46:56.051Z,77.73
2017-11-19T05:49:24.447Z,77.62
2017-11-19T05:51:52.748Z,78.09
2017-11-19T05:54:21.095Z,78.81
2017-11-19T05:56:49.394Z,79.39
2017-11-19T05:59:17.790Z,79.73
2017-11-19T06:01:47.602Z,81.01
2017-11-19T06:04:16.668Z,81.38
2017-11-19T06:06:44.988Z,80.96
2017-11-19T06:09:13.285Z,80.49
2017-11-19T06:11:42.361Z,78.90
2017-11-19T06:14:10.670Z,77.70
2017-11-19T06:16:39.753Z,75.91
2017-11-19T06:19:08.049Z,75.17
2017-11-19T06:21:37.178Z,74.85
2017-11-19T06:24:05.485Z,74.48
2017-11-19T06:26:33.788Z,74.66
2017-11-19T06:29:02.885Z,75.20
2017-11-19T06:31:32.779Z,75.73
2017-11-19T06:34:01.112Z,76.44
2017-11-19T06:36:30.296Z,76.30
2017-11-19T06:38:58.589Z,76.48
2017-11-19T06:41:27.691Z,76.61
2017-11-19T06:43:56.765Z,76.75
2017-11-19T06:46:25.113Z,76.85
2017-11-19T06:48:53.426Z,76.65
2017-11-19T06:51:21.930Z,76.89
2017-11-19T06:53:50.255Z,76.92
2017-11-19T06:56:18.557Z,76.67
2017-11-19T06:58:46.863Z,76.21
2017-11-19T07:01:15.200Z,75.77
2017-11-19T07:03:43.526Z,75.15
2017-11-19T07:06:13.444Z,74.50
2017-11-19T07:08:41.756Z,73.89
2017-11-19T07:11:10.910Z,72.77
2017-11-19T07:13:39.229Z,71.98
2017-11-19T07:16:08.290Z,71.25
2017-11-19T07:18:36.616Z,72.90
2017-11-19T07:21:05.954Z,73.53
2017-11-19T07:23:34.378Z,74.08
2017-11-19T07:26:02.714Z,74.03
2017-11-19T07:28:31.035Z,74.23
2017-11-19T07:30:59.326Z,74.53
2017-11-19T07:33:27.719Z,74.73
2017-11-19T07:35:56.021Z,74.36
2017-11-19T07:38:25.103Z,74.41
2017-11-19T07:40:53.419Z,74.31
2017-11-19T07:43:21.717Z,74.07
2017-11-19T07:45:50.045Z,73.38
2017-11-19T07:48:18.569Z,72.50
2017-11-19T07:50:47.676Z,72.22
2017-11-19T07:53:15.987Z,72.25
2017-11-19T07:55:44.312Z,72.62
2017-11-19T07:58:13.460Z,72.76
2017-11-19T08:00:41.784Z,72.88
2017-11-19T08:03:10.852Z,73.13
2017-11-19T08:05:39.301Z,73.57
2017-11-19T08:08:07.612Z,72.60
2017-11-19T08:10:35.925Z,71.72
2017-11-19T08:13:04.226Z,71.72
2017-11-19T08:15:33.386Z,71.73
2017-11-19T08:18:02.477Z,72.33
2017-11-19T08:20:30.794Z,72.17
2017-11-19T08:22:59.953Z,72.10
2017-11-19T08:25:28.287Z,71.96
2017-11-19T08:27:57.340Z,72.20
2017-11-19T08:30:25.636Z,71.66
2017-11-19T08:32:55.441Z,71.54
2017-11-19T08:35:23.779Z,71.57
2017-11-19T08:37:52.311Z,71.55
2017-11-19T08:40:20.616Z,70.82
2017-11-19T08:42:48.925Z,71.29
2017-11-19T08:45:17.241Z,71.77
2017-11-19T08:47:45.643Z,71.68
2017-11-19T08:50:15.587Z,70.96
2017-11-19T08:52:44.646Z,70.99
2017-11-19T08:55:12.982Z,70.43
2017-11-19T08:57:42.140Z,70.37
2017-11-19T09:00:10.458Z,69.80
2017-11-19T09:02:39.518Z,69.38
2017-11-19T09:05:07.863Z,68.59
2017-11-19T09:07:36.193Z,67.81
2017-11-19T09:10:05.277Z,68.13
2017-11-19T09:12:33.613Z,66.86
2017-11-19T09:15:01.913Z,66.66
2017-11-19T09:17:30.220Z,66.96
2017-11-19T09:19:58.549Z,66.99
2017-11-19T09:22:27.716Z,66.61
2017-11-19T09:24:56.035Z,66.52
2017-11-19T09:29:52.711Z,67.33
2017-11-19T09:32:21.115Z,67.54
2017-11-19T09:34:49.428Z,69.33
2017-11-19T09:37:17.870Z,70.69
2017-11-19T09:39:46.386Z,71.19
2017-11-19T09:42:14.701Z,70.13
2017-11-19T09:44:42.997Z,70.37
2017-11-19T09:47:12.115Z,69.67
2017-11-19T09:49:40.440Z,68.63
2017-11-19T09:52:08.760Z,68.87
2017-11-19T09:54:37.811Z,68.51
2017-11-19T09:57:06.273Z,68.32
2017-11-19T09:59:34.585Z,68.40
2017-11-19T10:02:02.898Z,67.95
2017-11-19T10:04:31.965Z,67.95
2017-11-19T10:07:00.286Z,68.21
2017-11-19T10:09:29.378Z,68.07
2017-11-19T10:11:58.455Z,67.10
2017-11-19T10:14:26.834Z,66.47
2017-11-19T10:16:55.142Z,66.40
2017-11-19T10:19:24.241Z,66.51
2017-11-19T10:21:53.373Z,66.82
2017-11-19T10:24:21.690Z,67.12
2017-11-19T10:26:49.988Z,66.90
2017-11-19T10:29:18.291Z,67.44
2017-11-19T10:31:48.071Z,67.63
2017-11-19T10:34:16.391Z,68.08
2017-11-19T10:36:45.490Z,67.63
2017-11-19T10:39:14.693Z,66.76
2017-11-19T10:41:43.760Z,66.18
2017-11-19T10:44:12.132Z,67.13
2017-11-19T10:46:40.508Z,68.11
2017-11-19T10:49:08.896Z,67.12
2017-11-19T10:51:37.212Z,66.89
2017-11-19T10:54:06.275Z,66.25
2017-11-19T10:56:34.589Z,66.14
2017-11-19T10:59:02.952Z,65.79
2017-11-19T11:01:31.289Z,64.74
2017-11-19T11:03:59.600Z,64.41
2017-11-19T11:06:28.683Z,63.78
2017-11-19T11:08:57.020Z,61.22
2017-11-19T11:11:26.257Z,61.22
2017-11-19T11:13:54.573Z,61.03
2017-11-19T11:16:22.885Z,61.50
2017-11-19T11:18:51.951Z,61.62
2017-11-19T11:21:20.302Z,61.65
2017-11-19T11:23:48.614Z,61.66
2017-11-19T11:26:16.954Z,62.13
2017-11-19T11:28:45.321Z,62.67
2017-11-19T11:31:14.387Z,63.32
2017-11-19T11:33:43.295Z,62.36
2017-11-19T11:36:12.397Z,62.13
2017-11-19T11:38:40.736Z,61.70
2017-11-19T11:41:09.031Z,61.88
2017-11-19T11:43:37.339Z,61.83
2017-11-19T11:46:05.657Z,65.31
2017-11-19T11:48:33.990Z,67.61
2017-11-19T11:51:02.366Z,67.71
2017-11-19T11:53:30.748Z,67.77
2017-11-19T11:55:59.049Z,68.04
2017-11-19T11:58:27.353Z,68.41
2017-11-19T12:00:56.452Z,68.88
2017-11-19T12:03:25.549Z,69.06
2017-11-19T12:05:54.691Z,69.08
2017-11-19T12:08:23.080Z,68.65
2017-11-19T12:10:51.422Z,68.02
2017-11-19T12:13:19.785Z,67.83
2017-11-19T12:15:48.107Z,67.47
2017-11-19T12:18:16.439Z,67.38
2017-11-19T12:20:44.759Z,67.67
2017-11-19T12:23:13.103Z,69.48
2017-11-19T12:25:41.429Z,71.75
2017-11-19T12:28:09.780Z,73.46
2017-11-19T12:30:38.863Z,74.29
2017-11-19T12:33:07.172Z,73.13
2017-11-19T12:35:35.514Z,73.45
2017-11-19T12:38:03.820Z,72.90
2017-11-19T12:40:32.926Z,71.96
2017-11-19T12:43:02.106Z,71.74
2017-11-19T12:45:30.419Z,72.14
2017-11-19T12:47:59.588Z,71.29
2017-11-19T12:50:29.459Z,70.97
2017-11-19T12:52:57.772Z,71.01
2017-11-19T12:55:26.112Z,71.04
2017-11-19T12:57:55.248Z,70.77
2017-11-19T13:00:23.569Z,71.04
2017-11-19T13:02:52.650Z,70.52
2017-11-19T13:05:20.946Z,70.03
2017-11-19T13:07:49.253Z,68.02
2017-11-19T13:10:18.339Z,68.29
2017-11-19T13:12:47.612Z,68.05
2017-11-19T13:15:17.463Z,67.79
2017-11-19T13:17:46.541Z,67.12
2017-11-19T13:20:14.915Z,66.51
2017-11-19T13:22:43.218Z,66.19
2017-11-19T13:25:12.328Z,65.92
2017-11-19T13:27:41.388Z,66.23
2017-11-19T13:30:09.719Z,66.28
2017-11-19T13:32:38.035Z,66.31
2017-11-19T13:35:06.396Z,65.67
2017-11-19T13:37:35.630Z,66.18
2017-11-19T13:40:03.933Z,65.69
2017-11-19T13:42:32.246Z,65.35
2017-11-19T13:45:00.570Z,65.28
2017-11-19T13:47:28.888Z,64.87
2017-11-19T13:49:58.003Z,64.50
2017-11-19T13:52:27.107Z,64.80
2017-11-19T13:54:56.186Z,64.81
2017-11-19T13:57:25.379Z,64.94
2017-11-19T13:59:53.700Z,65.18
2017-11-19T14:02:22.028Z,64.82
2017-11-19T14:04:50.416Z,65.35
2017-11-19T14:07:18.721Z,64.53
2017-11-19T14:09:47.818Z,64.83
2017-11-19T14:12:16.148Z,64.92
2017-11-19T14:14:44.453Z,64.53
2017-11-19T14:17:12.847Z,65.30
2017-11-19T14:19:41.182Z,65.78
2017-11-19T14:22:09.494Z,66.07
2017-11-19T14:24:37.807Z,66.15
2017-11-19T14:27:06.978Z,66.57
2017-11-19T14:29:35.290Z,66.67
2017-11-19T14:32:03.611Z,67.10
2017-11-19T14:34:31.941Z,67.53
2017-11-19T14:37:00.249Z,67.93
2017-11-19T14:39:29.346Z,67.94
2017-11-19T14:41:57.731Z,67.85
2017-11-19T14:44:26.895Z,67.83
2017-11-19T14:46:55.288Z,67.88
2017-11-19T14:49:24.259Z,68.02
2017-11-19T14:51:52.582Z,68.21
2017-11-19T14:54:20.901Z,68.44
2017-11-19T14:56:49.205Z,68.56
2017-11-19T14:59:18.558Z,68.93
2017-11-19T15:01:47.690Z,69.24
2017-11-19T15:04:15.978Z,69.58
2017-11-19T15:06:44.281Z,69.81
2017-11-19T15:09:12.680Z,69.95
2017-11-19T15:11:41.843Z,70.07
2017-11-19T15:14:10.162Z,69.92
2017-11-19T15:16:39.253Z,69.83
2017-11-19T15:19:07.580Z,70.17
2017-11-19T15:21:35.896Z,69.96
2017-11-19T15:24:04.192Z,69.78
2017-11-19T15:26:32.532Z,69.42
2017-11-19T15:29:00.839Z,69.54
2017-11-19T15:31:29.144Z,69.04
2017-11-19T15:33:57.534Z,68.69
2017-11-19T15:36:27.372Z,68.10
2017-11-19T15:38:56.531Z,67.22
2017-11-19T15:41:24.834Z,67.19
2017-11-19T15:43:53.914Z,66.69
2017-11-19T15:46:22.234Z,66.09
2017-11-19T15:48:51.345Z,65.73
2017-11-19T15:51:20.418Z,65.60
2017-11-19T15:53:48.750Z,65.63
2017-11-19T15:56:17.185Z,65.74
2017-11-19T15:58:45.513Z,66.53
2017-11-19T16:01:13.815Z,67.62
2017-11-19T16:03:42.119Z,68.38
2017-11-19T16:06:11.299Z,68.74
2017-11-19T16:08:39.661Z,68.86
2017-11-19T16:11:07.949Z,69.21
2017-11-19T16:13:37.076Z,69.54
2017-11-19T16:16:05.413Z,69.99
2017-11-19T16:18:33.730Z,70.24
2017-11-19T16:21:02.020Z,71.40
2017-11-19T16:23:30.328Z,72.04
2017-11-19T16:25:58.654Z,72.47
2017-11-19T16:28:26.982Z,72.67
2017-11-19T16:30:56.050Z,72.43
2017-11-19T16:33:24.353Z,72.93
2017-11-19T16:35:52.658Z,72.74
2017-11-19T16:38:20.975Z,72.41
2017-11-19T16:40:49.299Z,72.29
2017-11-19T16:43:18.368Z,72.25
2017-11-19T16:45:46.662Z,72.52
2017-11-19T16:48:14.981Z,72.79
2017-11-19T16:50:43.278Z,72.50
2017-11-19T16:53:12.357Z,73.35
2017-11-19T16:55:40.683Z,75.65
2017-11-19T16:58:09.205Z,77.11
2017-11-19T17:00:37.599Z,78.68
2017-11-19T17:03:06.771Z,79.78
2017-11-19T17:05:35.087Z,80.59
2017-11-19T17:08:04.151Z,81.09
2017-11-19T17:10:32.446Z,81.48
2017-11-19T17:13:00.784Z,81.60
2017-11-19T17:15:29.102Z,81.65
2017-11-19T17:17:57.430Z,81.21
2017-11-19T17:20:26.500Z,81.07
2017-11-19T17:22:55.534Z,80.98
2017-11-19T17:25:24.605Z,80.86
2017-11-19T17:27:52.902Z,80.72
2017-11-19T17:30:22.048Z,80.72
2017-11-19T17:32:50.561Z,80.58
2017-11-19T17:35:18.911Z,80.59
2017-11-19T17:37:47.899Z,80.58
2017-11-19T17:40:16.229Z,80.40
2017-11-19T17:42:44.548Z,79.92
2017-11-19T17:45:12.859Z,79.76
2017-11-19T17:47:41.157Z,79.39
2017-11-19T17:50:09.474Z,79.43
2017-11-19T17:52:37.789Z,79.30
2017-11-19T17:55:06.129Z,79.55
2017-11-19T17:57:35.249Z,79.66
2017-11-19T18:00:04.346Z,79.66
2017-11-19T18:02:33.476Z,79.71
2017-11-19T18:05:01.847Z,79.77
2017-11-19T18:07:30.168Z,80.02
2017-11-19T18:09:58.496Z,79.94
2017-11-19T18:12:27.580Z,79.97
2017-11-19T18:14:55.894Z,79.41
2017-11-19T18:17:24.213Z,78.66
2017-11-19T18:19:52.560Z,78.21
2017-11-19T18:22:20.882Z,77.72
2017-11-19T18:24:49.205Z,77.56
2017-11-19T18:27:18.277Z,77.29
2017-11-19T18:29:47.422Z,77.14
2017-11-19T18:32:15.725Z,76.86
2017-11-19T18:34:44.043Z,76.47
2017-11-19T18:37:12.374Z,76.14
2017-11-19T18:39:40.670Z,75.79
2017-11-19T18:42:09.006Z,75.50
2017-11-19T18:44:38.094Z,75.17
2017-11-19T18:47:06.409Z,75.44
2017-11-19T18:49:34.710Z,75.48
2017-11-19T18:52:03.008Z,75.30
2017-11-19T18:54:32.069Z,75.15
2017-11-19T18:57:00.373Z,74.50
2017-11-19T18:59:29.691Z,74.51
2017-11-19T19:01:57.997Z,75.63
2017-11-19T19:04:27.063Z,75.76
2017-11-19T19:06:55.381Z,75.79
2017-11-19T19:09:23.779Z,75.86
2017-11-19T19:11:52.858Z,76.22
2017-11-19T19:14:21.179Z,76.34
2017-11-19T19:16:49.487Z,76.47
2017-11-19T19:19:17.807Z,76.87
2017-11-19T19:21:46.112Z,77.42
2017-11-19T19:24:15.175Z,78.09
2017-11-19T19:26:43.483Z,78.61
2017-11-19T19:29:12.678Z,78.99
2017-11-19T19:31:40.980Z,78.95
2017-11-19T19:34:10.045Z,78.93
2017-11-19T19:36:38.344Z,78.91
2017-11-19T19:39:07.444Z,79.41
2017-11-19T19:41:36.532Z,79.43
2017-11-19T19:44:04.841Z,79.50
2017-11-19T19:46:33.926Z,79.75
2017-11-19T19:49:03.000Z,79.91
2017-11-19T19:51:31.302Z,80.25
2017-11-19T19:54:00.374Z,80.40
2017-11-19T19:56:28.688Z,80.31
2017-11-19T19:58:57.753Z,80.24
2017-11-19T20:01:26.164Z,80.12
2017-11-19T20:03:55.300Z,79.93
2017-11-19T20:06:23.599Z,79.91
2017-11-19T20:08:51.902Z,79.66
2017-11-19T20:11:20.189Z,79.59
2017-11-19T20:13:48.520Z,79.70
2017-11-19T20:16:16.807Z,79.68
2017-11-19T20:18:45.125Z,79.72
2017-11-19T20:21:13.425Z,80.09
2017-11-19T20:23:41.905Z,80.16
2017-11-19T20:26:10.215Z,79.97
2017-11-19T20:28:38.536Z,79.64
2017-11-19T20:31:06.853Z,79.42
2017-11-19T20:33:35.994Z,78.95
2017-11-19T20:36:04.285Z,78.34
2017-11-19T20:38:32.599Z,78.19
2017-11-19T20:41:00.945Z,77.64
2017-11-19T20:43:29.248Z,77.19
2017-11-19T20:45:57.553Z,76.55
2017-11-19T20:48:25.852Z,76.01
2017-11-19T20:50:54.158Z,75.28
2017-11-19T20:53:22.470Z,75.21
2017-11-19T20:55:50.765Z,74.77
2017-11-19T20:58:19.356Z,74.65
2017-11-19T21:00:47.661Z,74.43
2017-11-19T21:03:15.965Z,74.54
2017-11-19T21:05:45.024Z,74.64
2017-11-19T21:08:14.189Z,74.61
2017-11-19T21:10:42.530Z,74.52
2017-11-19T21:13:11.600Z,74.62
2017-11-19T21:15:39.908Z,74.81
2017-11-19T21:18:08.204Z,74.51
2017-11-19T21:20:37.270Z,73.99
2017-11-19T21:23:05.611Z,73.85
2017-11-19T21:25:33.953Z,73.87
2017-11-19T21:28:02.596Z,74.02
2017-11-19T21:30:30.901Z,73.63
2017-11-19T21:32:59.211Z,73.16
2017-11-19T21:35:28.289Z,72.94
2017-11-19T21:37:56.596Z,73.19
2017-11-19T21:40:25.662Z,73.14
2017-11-19T21:42:53.952Z,73.16
2017-11-19T21:45:22.292Z,72.91
2017-11-19T21:47:50.581Z,73.07
2017-11-19T21:50:18.939Z,73.09
2017-11-19T21:52:47.259Z,72.79
2017-11-19T21:55:15.567Z,72.69
2017-11-19T21:57:43.895Z,72.56
2017-11-19T22:00:12.355Z,72.54
2017-11-19T22:02:41.442Z,72.78
2017-11-19T22:05:10.524Z,73.11
2017-11-19T22:07:38.832Z,73.38
2017-11-19T22:10:07.915Z,73.32
2017-11-19T22:12:36.234Z,73.56
2017-11-19T22:15:04.536Z,72.94
2017-11-19T22:17:32.861Z,72.79
2017-11-19T22:20:01.200Z,72.21
2017-11-19T22:22:29.518Z,72.23
2017-11-19T22:24:57.851Z,72.11
2017-11-19T22:27:26.149Z,72.06
2017-11-19T22:29:54.468Z,71.92
2017-11-19T22:32:22.781Z,72.12
2017-11-19T22:34:51.133Z,72.53
2017-11-19T22:37:19.442Z,72.70
2017-11-19T22:39:48.539Z,72.54
2017-11-19T22:42:17.619Z,72.54
2017-11-19T22:44:45.941Z,72.76
2017-11-19T22:47:14.292Z,72.27
2017-11-19T22:49:43.389Z,71.80
2017-11-19T22:52:12.484Z,71.44
2017-11-19T22:54:40.795Z,72.03
2017-11-19T22:57:09.130Z,71.79
2017-11-19T22:59:37.448Z,71.63
2017-11-19T23:02:05.785Z,71.53
2017-11-19T23:04:34.086Z,71.38
2017-11-19T23:07:03.001Z,71.10
2017-11-19T23:09:32.067Z,71.30
2017-11-19T23:12:00.386Z,71.38
2017-11-19T23:14:29.481Z,70.81
2017-11-19T23:16:58.546Z,70.90
2017-11-19T23:19:26.854Z,70.83
2017-11-19T23:21:55.934Z,70.82
2017-11-19T23:24:24.238Z,70.78
2017-11-19T23:26:53.318Z,70.60
2017-11-19T23:29:21.628Z,70.14
2017-11-19T23:31:50.704Z,70.60
2017-11-19T23:34:19.010Z,70.77
2017-11-19T23:36:47.325Z,70.96
2017-11-19T23:39:15.633Z,71.08
2017-11-19T23:41:43.984Z,71.27
2017-11-19T23:44:12.296Z,71.01
2017-11-19T23:46:40.623Z,71.28
2017-11-19T23:49:08.923Z,71.72
2017-11-19T23:51:37.217Z,71.85
2017-11-19T23:54:05.551Z,71.86
2017-11-19T23:56:34.618Z,72.18
2017-11-19T23:59:02.921Z,72.35
